Time;durP1;ratioP1;P1;durP2;ratioP2;P2;SDS_P1;SDS_P2;PMS_P1;PMS_P2;Temp;Humidity;BMP_temperature;BMP_pressure;BME280_temperature;BME280_humidity;BME280_pressure;Samples;Min_cycle;Max_cycle;Signal;HPM_P1;HPM_P2
2022/03/30 00:00:56;;;;;;;35.05;17.35;;;;;;;;;;4982788;28;20039;-72
2022/03/30 00:03:22;;;;;;;35.28;17.80;;;;;;;;;;4977486;28;20042;-72
2022/03/30 00:05:48;;;;;;;33.28;17.55;;;;;;;;;;4980962;28;20043;-72
2022/03/30 00:08:14;;;;;;;33.28;17.45;;;;;;;;;;4967275;28;20566;-72
2022/03/30 00:10:40;;;;;;;28.85;16.95;;;;;;;;;;4978585;28;20507;-72
2022/03/30 00:13:08;;;;;;;35.70;16.35;;;;;;;;;;4980336;28;20046;-72
2022/03/30 00:15:34;;;;;;;35.35;17.05;;;;;;;;;;4984561;28;20046;-72
2022/03/30 00:18:00;;;;;;;30.77;17.70;;;;;;;;;;4983685;28;20034;-72
2022/03/30 00:20:26;;;;;;;30.33;17.95;;;;;;;;;;5003002;28;20096;-72
2022/03/30 00:22:52;;;;;;;28.95;17.45;;;;;;;;;;4986663;28;20051;-72
2022/03/30 00:25:20;;;;;;;36.22;18.15;;;;;;;;;;4986968;28;20147;-72
2022/03/30 00:27:46;;;;;;;35.22;17.63;;;;;;;;;;4987406;28;20989;-71
2022/03/30 00:30:17;;;;;;;38.42;18.27;;;;;;;;;;4982368;28;20070;-71
2022/03/30 00:32:43;;;;;;;32.65;18.42;;;;;;;;;;4985483;28;20046;-72
2022/03/30 00:35:10;;;;;;;29.65;17.40;;;;;;;;;;4981555;28;20051;-72
2022/03/30 00:37:36;;;;;;;29.52;17.20;;;;;;;;;;4975260;28;20042;-72
2022/03/30 00:40:06;;;;;;;31.92;18.30;;;;;;;;;;4978215;28;20038;-71
2022/03/30 00:42:32;;;;;;;34.10;18.15;;;;;;;;;;4979211;28;20038;-72
2022/03/30 00:44:58;;;;;;;35.90;18.23;;;;;;;;;;4982667;28;20089;-72
2022/03/30 00:47:26;;;;;;;29.33;17.80;;;;;;;;;;4984638;28;20058;-72
2022/03/30 00:49:52;;;;;;;29.50;16.77;;;;;;;;;;4980153;28;20043;-72
2022/03/30 00:52:20;;;;;;;32.20;17.85;;;;;;;;;;4981015;28;20081;-71
2022/03/30 00:54:47;;;;;;;32.17;18.65;;;;;;;;;;4985097;28;20042;-72
2022/03/30 00:57:14;;;;;;;36.70;19.45;;;;;;;;;;4983903;28;20038;-72
2022/03/30 00:59:41;;;;;;;33.22;18.60;;;;;;;;;;4984509;28;20046;-72
2022/03/30 01:02:08;;;;;;;34.50;19.40;;;;;;;;;;4984932;28;20038;-72
2022/03/30 01:04:34;;;;;;;33.75;19.08;;;;;;;;;;4981794;28;20130;-72
2022/03/30 01:07:00;;;;;;;31.88;18.45;;;;;;;;;;4986282;28;20046;-72
2022/03/30 01:09:27;;;;;;;29.50;18.75;;;;;;;;;;4976239;28;20050;-71
2022/03/30 01:11:54;;;;;;;31.10;18.75;;;;;;;;;;4976824;28;20038;-72
2022/03/30 01:14:20;;;;;;;28.38;16.00;;;;;;;;;;4979203;28;20051;-72
2022/03/30 01:16:46;;;;;;;31.05;17.42;;;;;;;;;;4987371;28;20038;-72
2022/03/30 01:19:13;;;;;;;30.27;16.02;;;;;;;;;;4968810;28;20100;-72
2022/03/30 01:21:40;;;;;;;36.35;17.50;;;;;;;;;;4979282;28;20042;-72
2022/03/30 01:24:08;;;;;;;30.60;18.17;;;;;;;;;;4978964;28;20092;-72
2022/03/30 01:26:34;;;;;;;33.72;18.75;;;;;;;;;;4984718;28;20095;-72
2022/03/30 01:29:01;;;;;;;33.67;19.88;;;;;;;;;;4982441;28;20066;-72
2022/03/30 01:34:32;;;;;;;38.00;20.80;;;;;;;;;;4900910;29;20048;-72
2022/03/30 01:36:58;;;;;;;36.28;21.75;;;;;;;;;;4892961;29;20054;-71
2022/03/30 01:39:24;;;;;;;40.95;20.67;;;;;;;;;;4937965;28;20050;-72
2022/03/30 01:41:50;;;;;;;35.65;20.50;;;;;;;;;;4975524;28;20037;-72
2022/03/30 01:44:16;;;;;;;30.70;16.67;;;;;;;;;;4980255;28;20109;-72
2022/03/30 01:46:42;;;;;;;28.95;17.85;;;;;;;;;;4981375;28;20085;-71
2022/03/30 01:49:08;;;;;;;37.70;22.15;;;;;;;;;;4981874;28;20042;-71
2022/03/30 01:51:34;;;;;;;36.95;20.38;;;;;;;;;;4976198;28;20097;-72
2022/03/30 01:54:01;;;;;;;35.88;19.95;;;;;;;;;;4977963;28;20125;-72
2022/03/30 01:56:27;;;;;;;31.40;18.83;;;;;;;;;;4982870;28;20050;-72
2022/03/30 01:58:53;;;;;;;27.95;18.17;;;;;;;;;;4979505;28;20562;-72
2022/03/30 02:01:20;;;;;;;36.47;18.48;;;;;;;;;;4975567;28;20082;-72
2022/03/30 02:03:46;;;;;;;35.30;19.80;;;;;;;;;;4981664;28;20093;-72
2022/03/30 02:06:14;;;;;;;34.45;19.98;;;;;;;;;;4981937;28;20046;-73
2022/03/30 02:08:40;;;;;;;33.92;19.88;;;;;;;;;;4977564;28;20054;-72
2022/03/30 02:11:07;;;;;;;40.67;21.05;;;;;;;;;;4980817;28;20052;-73
2022/03/30 02:13:33;;;;;;;38.97;20.15;;;;;;;;;;4981136;28;20046;-72
2022/03/30 02:15:59;;;;;;;33.05;19.20;;;;;;;;;;4983381;28;20053;-72
2022/03/30 02:18:25;;;;;;;37.15;20.55;;;;;;;;;;4975709;28;20043;-72
2022/03/30 02:20:52;;;;;;;38.03;21.02;;;;;;;;;;4978289;28;20062;-72
2022/03/30 02:23:18;;;;;;;42.03;21.38;;;;;;;;;;4981200;28;20042;-73
2022/03/30 02:25:44;;;;;;;40.58;20.65;;;;;;;;;;4981401;28;20043;-72
2022/03/30 02:28:10;;;;;;;35.33;20.73;;;;;;;;;;4982570;28;20060;-72
2022/03/30 02:30:37;;;;;;;35.60;20.85;;;;;;;;;;4986854;28;20499;-72
2022/03/30 02:33:03;;;;;;;39.42;21.38;;;;;;;;;;4968486;28;20046;-72
2022/03/30 02:35:29;;;;;;;33.17;20.95;;;;;;;;;;4987643;28;20100;-72
2022/03/30 02:37:56;;;;;;;35.20;20.38;;;;;;;;;;4983237;28;20100;-72
2022/03/30 02:40:23;;;;;;;39.08;21.25;;;;;;;;;;4972789;28;20414;-73
2022/03/30 02:42:49;;;;;;;35.80;21.58;;;;;;;;;;4982456;28;20062;-73
2022/03/30 02:45:15;;;;;;;35.83;21.85;;;;;;;;;;4971562;28;20050;-73
2022/03/30 02:50:26;;;;;;;37.45;23.30;;;;;;;;;;4983936;28;20117;-72
2022/03/30 02:52:52;;;;;;;44.10;23.63;;;;;;;;;;4979886;28;20043;-72
2022/03/30 02:55:18;;;;;;;41.30;22.23;;;;;;;;;;4981751;28;20058;-72
2022/03/30 02:57:46;;;;;;;38.33;22.13;;;;;;;;;;4985144;28;20034;-72
2022/03/30 03:00:12;;;;;;;41.33;23.45;;;;;;;;;;4988826;28;20065;-72
2022/03/30 03:02:38;;;;;;;47.80;24.70;;;;;;;;;;4988652;28;20034;-72
2022/03/30 03:05:04;;;;;;;44.35;24.33;;;;;;;;;;4989279;28;20045;-72
2022/03/30 03:07:30;;;;;;;40.08;23.40;;;;;;;;;;4988855;28;20129;-72
2022/03/30 03:09:56;;;;;;;39.92;21.80;;;;;;;;;;4985889;28;20214;-72
2022/03/30 03:12:22;;;;;;;39.55;22.63;;;;;;;;;;4986824;28;20066;-72
2022/03/30 03:14:48;;;;;;;44.88;24.25;;;;;;;;;;4983471;28;20038;-72
2022/03/30 03:17:15;;;;;;;43.30;23.58;;;;;;;;;;4983279;28;20054;-72
2022/03/30 03:19:41;;;;;;;35.72;22.20;;;;;;;;;;4985615;28;20435;-72
2022/03/30 03:22:07;;;;;;;40.40;22.98;;;;;;;;;;4985547;28;20042;-72
2022/03/30 03:24:33;;;;;;;42.22;23.00;;;;;;;;;;4983977;28;20419;-72
2022/03/30 03:27:00;;;;;;;42.47;23.48;;;;;;;;;;4980308;28;20517;-72
2022/03/30 03:29:26;;;;;;;44.88;23.80;;;;;;;;;;4985799;28;20054;-72
2022/03/30 03:31:52;;;;;;;41.60;24.23;;;;;;;;;;4987008;28;20379;-72
2022/03/30 03:34:18;;;;;;;40.67;24.80;;;;;;;;;;4984633;28;20038;-72
2022/03/30 03:36:44;;;;;;;41.33;23.48;;;;;;;;;;4980539;28;20047;-72
2022/03/30 03:39:10;;;;;;;40.75;23.52;;;;;;;;;;4986557;28;20049;-72
2022/03/30 03:41:36;;;;;;;40.22;23.48;;;;;;;;;;4986944;28;20599;-72
2022/03/30 03:44:03;;;;;;;41.10;23.90;;;;;;;;;;4989821;28;20474;-72
2022/03/30 03:46:29;;;;;;;44.85;23.13;;;;;;;;;;4971918;28;20050;-72
2022/03/30 03:48:55;;;;;;;46.85;23.90;;;;;;;;;;4993084;28;20108;-72
2022/03/30 03:51:23;;;;;;;41.03;23.63;;;;;;;;;;4987344;28;20129;-72
2022/03/30 03:53:49;;;;;;;43.72;23.27;;;;;;;;;;4985421;28;20446;-72
2022/03/30 03:56:15;;;;;;;42.03;23.85;;;;;;;;;;4989355;28;20479;-72
2022/03/30 03:58:41;;;;;;;45.35;22.95;;;;;;;;;;4986825;28;20402;-72
2022/03/30 04:01:07;;;;;;;44.22;22.02;;;;;;;;;;4983417;28;20398;-72
2022/03/30 04:03:33;;;;;;;35.00;22.00;;;;;;;;;;4978565;28;20046;-73
2022/03/30 04:05:59;;;;;;;40.50;21.77;;;;;;;;;;4979378;28;20038;-73
2022/03/30 04:08:25;;;;;;;36.05;21.60;;;;;;;;;;4981019;28;20491;-72
2022/03/30 04:10:52;;;;;;;36.22;22.15;;;;;;;;;;4979155;28;20042;-72
2022/03/30 04:13:18;;;;;;;38.35;21.58;;;;;;;;;;4980221;28;20697;-73
2022/03/30 04:15:44;;;;;;;38.72;20.60;;;;;;;;;;4979189;28;20129;-73
2022/03/30 04:18:10;;;;;;;38.67;20.60;;;;;;;;;;4984746;28;20169;-73
2022/03/30 04:20:37;;;;;;;43.22;21.48;;;;;;;;;;4980468;28;20046;-73
2022/03/30 04:23:03;;;;;;;42.45;20.95;;;;;;;;;;4979273;28;20049;-73
2022/03/30 04:25:29;;;;;;;42.80;21.05;;;;;;;;;;4980758;28;20046;-73
2022/03/30 04:27:55;;;;;;;37.10;20.88;;;;;;;;;;4979988;28;20138;-72
2022/03/30 04:30:22;;;;;;;38.38;19.40;;;;;;;;;;4983583;28;20196;-73
2022/03/30 04:32:48;;;;;;;37.95;20.63;;;;;;;;;;4979478;28;20078;-73
2022/03/30 04:35:14;;;;;;;38.08;19.88;;;;;;;;;;4987074;28;20073;-73
2022/03/30 04:37:41;;;;;;;35.22;19.83;;;;;;;;;;4978939;28;20043;-73
2022/03/30 04:40:19;;;;;;;42.92;20.02;;;;;;;;;;4983071;28;20141;-73
2022/03/30 04:42:45;;;;;;;37.17;19.27;;;;;;;;;;4980516;28;20038;-75
2022/03/30 04:45:11;;;;;;;42.53;19.77;;;;;;;;;;4987769;28;20504;-72
2022/03/30 04:47:37;;;;;;;36.00;19.58;;;;;;;;;;4986608;28;20042;-73
2022/03/30 04:50:04;;;;;;;38.05;20.23;;;;;;;;;;4985116;28;20509;-72
2022/03/30 04:52:32;;;;;;;34.35;18.55;;;;;;;;;;4987615;28;20038;-72
2022/03/30 04:54:58;;;;;;;36.17;20.23;;;;;;;;;;4988700;28;20042;-72
2022/03/30 04:57:24;;;;;;;39.35;19.85;;;;;;;;;;4984803;28;20047;-72
2022/03/30 04:59:50;;;;;;;39.60;20.00;;;;;;;;;;4987024;28;20031;-72
2022/03/30 05:02:16;;;;;;;34.28;19.02;;;;;;;;;;4986902;28;20108;-74
2022/03/30 05:04:42;;;;;;;36.97;18.77;;;;;;;;;;4966718;28;20426;-73
2022/03/30 05:07:09;;;;;;;37.17;18.52;;;;;;;;;;4983128;28;20057;-72
2022/03/30 05:09:35;;;;;;;32.95;17.50;;;;;;;;;;4982082;28;20501;-73
2022/03/30 05:12:02;;;;;;;35.90;19.00;;;;;;;;;;4988177;28;20089;-73
2022/03/30 05:14:28;;;;;;;35.65;17.83;;;;;;;;;;4987832;28;20039;-72
2022/03/30 05:16:54;;;;;;;30.00;17.42;;;;;;;;;;4987978;28;20095;-72
2022/03/30 05:19:20;;;;;;;36.13;18.58;;;;;;;;;;4984201;28;20049;-73
2022/03/30 05:21:46;;;;;;;35.25;18.15;;;;;;;;;;4984448;28;20478;-73
2022/03/30 05:24:12;;;;;;;37.08;18.13;;;;;;;;;;4985347;28;20193;-74
2022/03/30 05:26:38;;;;;;;37.70;18.42;;;;;;;;;;4985482;28;20057;-73
2022/03/30 05:29:05;;;;;;;37.17;17.65;;;;;;;;;;4985293;28;20047;-73
2022/03/30 05:31:31;;;;;;;37.45;18.50;;;;;;;;;;4984509;28;20142;-74
2022/03/30 05:33:57;;;;;;;38.55;17.08;;;;;;;;;;4982173;28;20038;-73
2022/03/30 05:36:23;;;;;;;34.92;17.92;;;;;;;;;;4979889;28;20043;-73
2022/03/30 05:38:50;;;;;;;34.50;16.98;;;;;;;;;;4980599;28;20049;-73
2022/03/30 05:41:17;;;;;;;29.08;15.30;;;;;;;;;;4981864;28;20042;-73
2022/03/30 05:43:43;;;;;;;33.47;15.85;;;;;;;;;;4984078;28;20257;-73
2022/03/30 05:46:10;;;;;;;33.17;15.45;;;;;;;;;;4985475;28;20038;-73
2022/03/30 05:48:36;;;;;;;30.58;13.43;;;;;;;;;;4985221;28;20038;-73
2022/03/30 05:51:03;;;;;;;25.85;13.88;;;;;;;;;;4982876;28;20043;-73
2022/03/30 05:53:29;;;;;;;27.05;13.88;;;;;;;;;;4987471;28;20042;-73
2022/03/30 05:55:55;;;;;;;23.73;13.30;;;;;;;;;;4980294;28;20054;-73
2022/03/30 05:58:22;;;;;;;23.50;12.98;;;;;;;;;;4978889;28;20150;-72
2022/03/30 06:00:48;;;;;;;26.48;12.70;;;;;;;;;;4984016;28;20043;-71
2022/03/30 06:03:14;;;;;;;27.98;12.52;;;;;;;;;;4987959;28;20050;-72
2022/03/30 06:05:40;;;;;;;22.23;13.30;;;;;;;;;;4985064;28;20125;-72
2022/03/30 06:08:07;;;;;;;18.23;9.23;;;;;;;;;;4985711;28;20042;-72
2022/03/30 06:10:34;;;;;;;14.05;10.35;;;;;;;;;;4987999;28;20058;-72
2022/03/30 06:13:00;;;;;;;10.65;7.72;;;;;;;;;;4984940;28;20168;-72
2022/03/30 06:15:27;;;;;;;8.02;5.53;;;;;;;;;;4986702;28;20038;-72
2022/03/30 06:17:53;;;;;;;4.90;4.40;;;;;;;;;;4982733;28;20133;-72
2022/03/30 06:20:20;;;;;;;4.85;3.17;;;;;;;;;;4986041;28;20045;-72
2022/03/30 06:22:46;;;;;;;5.55;4.90;;;;;;;;;;4990815;28;20043;-72
2022/03/30 06:25:12;;;;;;;4.40;3.20;;;;;;;;;;4987651;28;20034;-72
2022/03/30 06:27:38;;;;;;;3.45;3.15;;;;;;;;;;4983705;28;20066;-72
2022/03/30 06:30:06;;;;;;;3.05;2.50;;;;;;;;;;4986197;28;20851;-72
2022/03/30 06:32:32;;;;;;;5.38;4.50;;;;;;;;;;4980848;28;20066;-72
2022/03/30 06:34:58;;;;;;;2.95;2.65;;;;;;;;;;4983657;28;20047;-72
2022/03/30 06:37:24;;;;;;;2.67;2.47;;;;;;;;;;4985453;28;20081;-72
2022/03/30 06:39:51;;;;;;;4.63;2.72;;;;;;;;;;4986852;28;20088;-72
2022/03/30 06:42:17;;;;;;;3.67;2.85;;;;;;;;;;4974892;28;20038;-72
2022/03/30 06:44:43;;;;;;;4.40;3.00;;;;;;;;;;4992333;28;20042;-72
2022/03/30 06:47:09;;;;;;;3.33;2.88;;;;;;;;;;4992497;28;20046;-72
2022/03/30 06:49:37;;;;;;;3.42;2.90;;;;;;;;;;4987473;28;20046;-72
2022/03/30 06:52:04;;;;;;;3.28;2.97;;;;;;;;;;4989812;28;20049;-72
2022/03/30 06:54:30;;;;;;;3.08;2.88;;;;;;;;;;4974932;28;20030;-71
2022/03/30 06:56:56;;;;;;;4.72;2.65;;;;;;;;;;4991868;28;20061;-72
2022/03/30 06:59:22;;;;;;;2.95;2.65;;;;;;;;;;4986653;28;20121;-72
2022/03/30 07:01:48;;;;;;;3.88;3.08;;;;;;;;;;4991761;28;20038;-72
2022/03/30 07:04:14;;;;;;;4.13;2.40;;;;;;;;;;4990891;28;20046;-72
2022/03/30 07:10:14;;;;;;;2.50;2.30;;;;;;;;;;4989358;28;20045;-72
2022/03/30 07:12:11;;;;;;;3.05;2.40;;;;;;;;;;4983457;28;20078;-72
2022/03/30 07:14:37;;;;;;;2.30;2.10;;;;;;;;;;4989785;28;20038;-72
2022/03/30 07:17:03;;;;;;;3.05;1.92;;;;;;;;;;4987298;28;20066;-71
2022/03/30 07:19:29;;;;;;;2.13;1.92;;;;;;;;;;4987733;28;20042;-71
2022/03/30 07:21:55;;;;;;;5.13;1.90;;;;;;;;;;4992070;28;20046;-71
2022/03/30 07:24:22;;;;;;;3.78;2.00;;;;;;;;;;4989728;28;20050;-71
2022/03/30 07:26:48;;;;;;;2.40;2.20;;;;;;;;;;4992575;28;20049;-71
2022/03/30 07:29:14;;;;;;;2.55;2.35;;;;;;;;;;4991145;28;20054;-71
2022/03/30 07:31:40;;;;;;;4.50;2.70;;;;;;;;;;4991474;28;20145;-71
2022/03/30 07:34:06;;;;;;;2.97;2.10;;;;;;;;;;4981082;28;20035;-71
2022/03/30 07:36:32;;;;;;;3.72;2.53;;;;;;;;;;4990928;28;20038;-72
2022/03/30 07:38:58;;;;;;;3.28;2.30;;;;;;;;;;4990721;28;20137;-71
2022/03/30 07:41:24;;;;;;;2.58;2.30;;;;;;;;;;4989979;28;20079;-71
2022/03/30 07:43:50;;;;;;;1.77;1.60;;;;;;;;;;4987490;28;20038;-71
2022/03/30 07:46:16;;;;;;;4.32;2.15;;;;;;;;;;4991272;28;20041;-72
2022/03/30 07:48:42;;;;;;;2.85;1.95;;;;;;;;;;4992403;28;20156;-72
2022/03/30 07:51:08;;;;;;;2.20;1.83;;;;;;;;;;4990085;28;20073;-72
2022/03/30 07:53:34;;;;;;;2.00;1.90;;;;;;;;;;4990853;28;20038;-72
2022/03/30 07:56:00;;;;;;;2.72;1.90;;;;;;;;;;4990957;28;20045;-72
2022/03/30 07:58:26;;;;;;;3.65;2.10;;;;;;;;;;4993366;28;20057;-73
2022/03/30 08:00:52;;;;;;;2.17;1.75;;;;;;;;;;4990960;28;20042;-73
2022/03/30 08:03:18;;;;;;;4.03;2.00;;;;;;;;;;4991665;28;20044;-73
2022/03/30 08:05:45;;;;;;;2.72;1.95;;;;;;;;;;4991040;28;20046;-73
2022/03/30 08:08:11;;;;;;;3.85;2.10;;;;;;;;;;4987118;28;20046;-73
2022/03/30 08:10:37;;;;;;;2.40;2.30;;;;;;;;;;4991502;28;20046;-73
2022/03/30 08:13:04;;;;;;;2.92;2.30;;;;;;;;;;4992316;28;20050;-73
2022/03/30 08:15:30;;;;;;;2.80;2.03;;;;;;;;;;4989570;28;20507;-73
2022/03/30 08:17:56;;;;;;;3.58;2.20;;;;;;;;;;4991979;28;20042;-73
2022/03/30 08:23:08;;;;;;;4.10;3.33;;;;;;;;;;4991479;28;20046;-73
2022/03/30 08:25:34;;;;;;;5.43;3.63;;;;;;;;;;4991392;28;20092;-73
2022/03/30 08:28:00;;;;;;;5.22;4.07;;;;;;;;;;4973687;28;20097;-72
2022/03/30 08:30:27;;;;;;;6.28;3.08;;;;;;;;;;4990873;28;20050;-72
2022/03/30 08:32:54;;;;;;;5.10;2.90;;;;;;;;;;4990557;28;20085;-72
2022/03/30 08:35:21;;;;;;;4.03;2.63;;;;;;;;;;4992158;28;20046;-72
2022/03/30 08:37:47;;;;;;;5.30;2.58;;;;;;;;;;4985513;28;20411;-72
2022/03/30 08:40:13;;;;;;;3.53;2.40;;;;;;;;;;4989671;28;20043;-72
2022/03/30 08:42:40;;;;;;;5.85;2.92;;;;;;;;;;4991240;28;20042;-72
2022/03/30 08:45:07;;;;;;;4.20;3.72;;;;;;;;;;4990749;28;20042;-72
2022/03/30 08:47:34;;;;;;;6.75;4.10;;;;;;;;;;4990565;28;20617;-73
2022/03/30 08:50:00;;;;;;;7.10;4.85;;;;;;;;;;4996878;28;20069;-73
2022/03/30 08:52:26;;;;;;;8.07;4.80;;;;;;;;;;4991936;28;20049;-73
2022/03/30 08:54:52;;;;;;;6.93;4.57;;;;;;;;;;4990634;28;20050;-73
2022/03/30 08:57:19;;;;;;;5.15;4.00;;;;;;;;;;4990849;28;20123;-73
2022/03/30 09:00:02;;;;;;;4.30;3.25;;;;;;;;;;4991769;28;20038;-73
2022/03/30 09:02:49;;;;;;;5.07;3.45;;;;;;;;;;4991620;28;20038;-73
2022/03/30 09:05:19;;;;;;;4.40;3.40;;;;;;;;;;4989934;28;20739;-73
2022/03/30 09:07:48;;;;;;;7.93;4.10;;;;;;;;;;4990801;28;20193;-73
2022/03/30 09:10:22;;;;;;;4.05;2.75;;;;;;;;;;4988324;28;20069;-72
2022/03/30 09:12:50;;;;;;;5.40;2.72;;;;;;;;;;4991004;28;20093;-72
2022/03/30 09:15:16;;;;;;;6.53;3.20;;;;;;;;;;4990397;28;20041;-72
2022/03/30 09:17:43;;;;;;;4.28;2.30;;;;;;;;;;4986951;28;20522;-72
2022/03/30 09:20:20;;;;;;;4.75;2.47;;;;;;;;;;4982957;28;20053;-72
2022/03/30 09:22:51;;;;;;;3.92;2.30;;;;;;;;;;4987943;28;20046;-72
2022/03/30 09:25:17;;;;;;;3.88;3.05;;;;;;;;;;4990132;28;20081;-72
2022/03/30 09:27:45;;;;;;;4.28;3.40;;;;;;;;;;4989657;28;20050;-72
2022/03/30 09:30:12;;;;;;;2.88;2.45;;;;;;;;;;4990325;28;20046;-72
2022/03/30 09:32:43;;;;;;;4.68;3.00;;;;;;;;;;4972082;28;20450;-72
2022/03/30 09:35:19;;;;;;;5.43;3.53;;;;;;;;;;4988908;28;20070;-72
2022/03/30 09:37:45;;;;;;;5.45;2.80;;;;;;;;;;4991214;28;20045;-72
2022/03/30 09:40:12;;;;;;;8.25;3.03;;;;;;;;;;4986395;28;20045;-72
2022/03/30 09:42:38;;;;;;;5.38;3.13;;;;;;;;;;4987917;28;20041;-72
2022/03/30 09:45:04;;;;;;;3.92;2.95;;;;;;;;;;4991356;28;20070;-72
2022/03/30 09:47:41;;;;;;;7.38;3.03;;;;;;;;;;4990172;28;20064;-72
2022/03/30 09:50:08;;;;;;;4.88;2.72;;;;;;;;;;4988179;28;20050;-71
2022/03/30 09:52:34;;;;;;;3.58;2.65;;;;;;;;;;4986859;28;20121;-72
2022/03/30 09:55:01;;;;;;;4.88;2.92;;;;;;;;;;4989374;28;20582;-72
2022/03/30 09:57:29;;;;;;;3.83;2.88;;;;;;;;;;4989122;28;20100;-72
2022/03/30 09:59:58;;;;;;;8.02;3.67;;;;;;;;;;4989002;28;20157;-71
2022/03/30 10:02:24;;;;;;;6.50;4.25;;;;;;;;;;4985174;28;20042;-72
2022/03/30 10:04:51;;;;;;;8.23;4.35;;;;;;;;;;4984542;28;20065;-72
2022/03/30 10:07:17;;;;;;;3.58;2.13;;;;;;;;;;4983447;28;20435;-72
2022/03/30 10:09:43;;;;;;;5.70;1.92;;;;;;;;;;4986060;28;20901;-72
2022/03/30 10:12:12;;;;;;;5.40;1.52;;;;;;;;;;4984018;28;20039;-72
2022/03/30 10:14:39;;;;;;;3.25;1.35;;;;;;;;;;4983996;28;20034;-72
2022/03/30 10:17:05;;;;;;;7.88;1.40;;;;;;;;;;4984166;28;20960;-72
2022/03/30 10:19:32;;;;;;;3.13;1.40;;;;;;;;;;4980886;28;20953;-72
2022/03/30 10:21:58;;;;;;;6.78;1.50;;;;;;;;;;4983957;28;20038;-72
2022/03/30 10:24:49;;;;;;;4.10;1.45;;;;;;;;;;4981375;28;20717;-72
2022/03/30 10:27:15;;;;;;;5.70;1.70;;;;;;;;;;4977077;28;20105;-72
2022/03/30 10:29:49;;;;;;;3.80;1.23;;;;;;;;;;4976965;28;21058;-72
2022/03/30 10:32:20;;;;;;;3.58;1.13;;;;;;;;;;4984035;28;20494;-72
2022/03/30 10:34:50;;;;;;;4.65;1.02;;;;;;;;;;4984586;28;20066;-72
2022/03/30 10:37:23;;;;;;;3.28;1.35;;;;;;;;;;4984903;28;20479;-72
2022/03/30 10:39:56;;;;;;;4.25;1.42;;;;;;;;;;4983308;28;20490;-72
2022/03/30 10:42:23;;;;;;;4.90;1.30;;;;;;;;;;4981593;28;20139;-72
2022/03/30 10:44:57;;;;;;;5.80;1.10;;;;;;;;;;4985254;28;20069;-72
2022/03/30 10:47:29;;;;;;;2.25;1.00;;;;;;;;;;4993086;28;20464;-71
2022/03/30 10:49:56;;;;;;;4.90;1.20;;;;;;;;;;4984588;28;20041;-71
2022/03/30 10:52:35;;;;;;;6.50;1.23;;;;;;;;;;4988726;28;20127;-71
2022/03/30 10:55:13;;;;;;;3.33;1.10;;;;;;;;;;4987793;28;20406;-71
2022/03/30 10:57:49;;;;;;;3.10;1.23;;;;;;;;;;4989088;28;20050;-71
2022/03/30 11:00:17;;;;;;;5.60;1.70;;;;;;;;;;4987208;28;20398;-71
2022/03/30 11:02:43;;;;;;;4.00;1.30;;;;;;;;;;4988714;28;20039;-71
2022/03/30 11:05:10;;;;;;;3.97;1.33;;;;;;;;;;4989208;28;20398;-72
2022/03/30 11:07:37;;;;;;;4.13;1.20;;;;;;;;;;4988963;28;20144;-73
2022/03/30 11:10:15;;;;;;;4.93;1.38;;;;;;;;;;4988089;28;20145;-72
2022/03/30 11:12:56;;;;;;;4.22;1.30;;;;;;;;;;4984984;28;20503;-71
2022/03/30 11:15:23;;;;;;;3.50;1.25;;;;;;;;;;5004791;28;20495;-71
2022/03/30 11:17:49;;;;;;;4.45;1.70;;;;;;;;;;4983504;28;20785;-71
2022/03/30 11:20:16;;;;;;;7.68;1.60;;;;;;;;;;4986498;28;20518;-74
2022/03/30 11:22:44;;;;;;;3.80;1.50;;;;;;;;;;4987418;28;20561;-71
2022/03/30 11:25:22;;;;;;;2.92;1.30;;;;;;;;;;4985126;28;20034;-71
2022/03/30 11:28:01;;;;;;;11.82;1.60;;;;;;;;;;4988064;28;20499;-73
2022/03/30 11:30:31;;;;;;;5.68;1.80;;;;;;;;;;4984140;28;21761;-72
2022/03/30 11:32:57;;;;;;;3.97;1.48;;;;;;;;;;4985313;28;20116;-72
2022/03/30 11:35:25;;;;;;;2.55;1.00;;;;;;;;;;4985040;28;20517;-72
2022/03/30 11:38:04;;;;;;;4.90;1.20;;;;;;;;;;4984117;28;22028;-72
2022/03/30 11:40:30;;;;;;;3.17;1.33;;;;;;;;;;4984832;28;20371;-72
2022/03/30 11:42:57;;;;;;;3.78;1.48;;;;;;;;;;4984731;28;20415;-72
2022/03/30 11:45:24;;;;;;;3.22;1.30;;;;;;;;;;4985439;28;20434;-72
2022/03/30 11:47:52;;;;;;;4.95;1.40;;;;;;;;;;4984113;28;20407;-72
2022/03/30 11:50:30;;;;;;;3.15;1.20;;;;;;;;;;4979412;28;20046;-72
2022/03/30 11:53:00;;;;;;;3.03;1.13;;;;;;;;;;4986383;28;20065;-72
2022/03/30 11:55:27;;;;;;;5.78;1.10;;;;;;;;;;4984305;28;20042;-72
2022/03/30 11:57:54;;;;;;;2.90;1.77;;;;;;;;;;4988387;28;20124;-72
2022/03/30 12:00:23;;;;;;;3.90;1.27;;;;;;;;;;4987399;28;20038;-72
2022/03/30 12:02:49;;;;;;;3.67;1.25;;;;;;;;;;4985750;28;20034;-72
2022/03/30 12:05:15;;;;;;;4.00;1.10;;;;;;;;;;4983592;28;20135;-72
2022/03/30 12:07:42;;;;;;;4.82;1.35;;;;;;;;;;4988287;28;20080;-72
2022/03/30 12:10:13;;;;;;;3.80;1.40;;;;;;;;;;4970218;28;20038;-72
2022/03/30 12:12:40;;;;;;;4.85;1.25;;;;;;;;;;4981157;28;20364;-72
2022/03/30 12:15:08;;;;;;;5.30;1.40;;;;;;;;;;4980293;28;20062;-72
2022/03/30 12:17:34;;;;;;;2.63;1.10;;;;;;;;;;4979481;28;21063;-72
2022/03/30 12:20:02;;;;;;;3.97;1.60;;;;;;;;;;4979274;28;20030;-72
2022/03/30 12:22:28;;;;;;;5.97;1.38;;;;;;;;;;4986250;28;20038;-72
2022/03/30 12:24:55;;;;;;;6.05;1.48;;;;;;;;;;4986010;28;20411;-73
2022/03/30 12:27:21;;;;;;;3.78;1.40;;;;;;;;;;4980572;28;20038;-72
2022/03/30 12:29:47;;;;;;;2.42;1.30;;;;;;;;;;4984152;28;20052;-72
2022/03/30 12:32:15;;;;;;;3.28;1.30;;;;;;;;;;4983105;28;20039;-73
2022/03/30 12:34:42;;;;;;;3.70;1.30;;;;;;;;;;4980628;28;20474;-73
2022/03/30 12:37:09;;;;;;;2.95;1.05;;;;;;;;;;4990900;28;20654;-73
2022/03/30 12:39:43;;;;;;;4.00;1.17;;;;;;;;;;4990584;28;20482;-72
2022/03/30 12:42:11;;;;;;;2.65;1.00;;;;;;;;;;4986895;28;20046;-72
2022/03/30 12:44:41;;;;;;;2.85;0.98;;;;;;;;;;4983155;28;20534;-73
2022/03/30 12:47:17;;;;;;;4.35;1.10;;;;;;;;;;4990486;28;20510;-73
2022/03/30 12:49:43;;;;;;;4.93;1.30;;;;;;;;;;4988129;28;20487;-72
2022/03/30 12:52:14;;;;;;;3.47;1.13;;;;;;;;;;4991284;28;20542;-73
2022/03/30 12:54:41;;;;;;;3.60;1.20;;;;;;;;;;4985319;28;20042;-73
2022/03/30 12:57:07;;;;;;;3.15;1.15;;;;;;;;;;4984511;28;20112;-72
2022/03/30 12:59:33;;;;;;;6.75;1.40;;;;;;;;;;4988255;28;20405;-72
2022/03/30 13:01:59;;;;;;;3.90;1.00;;;;;;;;;;4989701;28;20085;-72
2022/03/30 13:04:28;;;;;;;7.55;1.45;;;;;;;;;;4985277;28;20128;-72
2022/03/30 13:07:10;;;;;;;3.95;1.15;;;;;;;;;;4999628;28;20038;-72
2022/03/30 13:09:37;;;;;;;2.78;1.30;;;;;;;;;;4984636;28;20042;-72
2022/03/30 13:12:04;;;;;;;2.05;1.00;;;;;;;;;;4979939;28;20157;-72
2022/03/30 13:14:30;;;;;;;2.63;1.00;;;;;;;;;;4982307;28;20050;-73
2022/03/30 13:16:57;;;;;;;4.03;1.23;;;;;;;;;;4984626;28;20045;-73
2022/03/30 13:19:24;;;;;;;2.42;1.10;;;;;;;;;;4983401;28;20045;-73
2022/03/30 13:21:50;;;;;;;3.75;1.13;;;;;;;;;;4983020;28;20053;-73
2022/03/30 13:24:18;;;;;;;2.47;1.10;;;;;;;;;;4981974;28;20039;-73
2022/03/30 13:26:46;;;;;;;2.75;1.13;;;;;;;;;;4969681;28;20617;-73
2022/03/30 13:29:12;;;;;;;5.00;1.10;;;;;;;;;;4988673;28;20603;-73
2022/03/30 13:31:43;;;;;;;3.78;1.00;;;;;;;;;;4986745;28;20136;-73
2022/03/30 13:34:09;;;;;;;4.32;0.98;;;;;;;;;;4982005;28;20617;-73
2022/03/30 13:36:35;;;;;;;4.18;1.20;;;;;;;;;;4983209;28;20070;-73
2022/03/30 13:39:03;;;;;;;5.07;1.20;;;;;;;;;;4979969;28;20465;-72
2022/03/30 13:41:29;;;;;;;4.32;1.20;;;;;;;;;;4982519;28;20056;-73
2022/03/30 13:43:55;;;;;;;4.15;1.20;;;;;;;;;;4990645;28;20034;-73
2022/03/30 13:46:21;;;;;;;7.18;1.30;;;;;;;;;;4988815;28;20553;-73
2022/03/30 13:48:48;;;;;;;2.15;1.02;;;;;;;;;;4987022;28;20374;-73
2022/03/30 13:51:14;;;;;;;3.28;1.27;;;;;;;;;;4983590;28;20057;-72
2022/03/30 13:53:40;;;;;;;7.78;1.10;;;;;;;;;;4983517;28;20454;-72
2022/03/30 13:56:09;;;;;;;4.50;1.08;;;;;;;;;;4982353;28;20074;-72
2022/03/30 13:58:35;;;;;;;4.32;1.38;;;;;;;;;;4979187;28;20690;-71
2022/03/30 14:01:06;;;;;;;5.05;1.10;;;;;;;;;;4981940;28;20463;-73
2022/03/30 14:03:32;;;;;;;3.17;1.00;;;;;;;;;;4965117;28;20117;-73
2022/03/30 14:05:58;;;;;;;5.43;1.40;;;;;;;;;;4983175;28;20050;-72
2022/03/30 14:08:24;;;;;;;5.55;1.30;;;;;;;;;;4968381;28;20096;-74
2022/03/30 14:10:52;;;;;;;2.80;1.08;;;;;;;;;;4979702;28;20046;-71
2022/03/30 14:13:19;;;;;;;3.03;1.05;;;;;;;;;;4982470;28;20054;-71
2022/03/30 14:15:46;;;;;;;4.05;1.05;;;;;;;;;;4985877;28;20113;-73
2022/03/30 14:18:12;;;;;;;3.88;1.40;;;;;;;;;;4981567;28;20076;-72
2022/03/30 14:20:38;;;;;;;6.53;1.40;;;;;;;;;;4981339;28;20080;-73
2022/03/30 14:23:05;;;;;;;6.80;1.23;;;;;;;;;;4986063;28;20038;-73
2022/03/30 14:25:32;;;;;;;4.00;1.40;;;;;;;;;;4989414;28;20494;-73
2022/03/30 14:27:59;;;;;;;6.78;1.50;;;;;;;;;;4980417;28;20121;-73
2022/03/30 14:30:25;;;;;;;6.93;1.83;;;;;;;;;;4979375;28;20078;-73
2022/03/30 14:32:53;;;;;;;2.22;1.25;;;;;;;;;;4984029;28;20034;-72
2022/03/30 14:35:19;;;;;;;3.83;1.23;;;;;;;;;;4982002;28;20134;-72
2022/03/30 14:37:45;;;;;;;4.05;1.27;;;;;;;;;;4986396;28;20038;-72
2022/03/30 14:40:12;;;;;;;5.60;1.20;;;;;;;;;;4980049;28;20042;-73
2022/03/30 14:42:38;;;;;;;6.47;1.42;;;;;;;;;;4983618;28;20058;-73